createdAt,value
2022-12-31T00:00:08.705Z,98.51
2022-12-31T00:02:36.193Z,98.55
2022-12-31T00:05:04.397Z,98.03
2022-12-31T00:09:57.544Z,96.64
2022-12-31T00:12:24.758Z,96.42
2022-12-31T00:14:51.355Z,96.08
2022-12-31T00:17:17.914Z,95.84
2022-12-31T00:19:44.475Z,95.48
2022-12-31T00:22:11.243Z,95.52
2022-12-31T00:24:37.755Z,95.09
2022-12-31T00:27:04.389Z,95.34
2022-12-31T00:29:30.982Z,95.05
2022-12-31T00:31:57.546Z,94.61
2022-12-31T00:34:24.264Z,94.59
2022-12-31T00:36:50.885Z,94.08
2022-12-31T00:39:17.414Z,93.74
2022-12-31T00:41:44.202Z,93.46
2022-12-31T00:44:12.212Z,94.01
2022-12-31T00:49:05.785Z,94.25
2022-12-31T00:51:32.515Z,93.84
2022-12-31T00:53:59.170Z,93.43
2022-12-31T00:56:28.548Z,93.68
2022-12-31T00:58:55.497Z,93.83
2022-12-31T01:01:24.577Z,93.68
2022-12-31T01:03:53.564Z,93.60
2022-12-31T01:06:21.180Z,93.62
2022-12-31T01:08:49.747Z,94.15
2022-12-31T01:11:22.246Z,93.19
2022-12-31T01:14:15.511Z,93.56
2022-12-31T01:16:45.206Z,93.78
2022-12-31T01:19:14.456Z,93.66
2022-12-31T01:21:42.659Z,93.94
2022-12-31T01:24:10.761Z,93.57
2022-12-31T01:26:38.492Z,93.82
2022-12-31T01:29:06.449Z,93.73
2022-12-31T01:31:34.416Z,93.57
2022-12-31T01:34:01.042Z,93.58
2022-12-31T01:36:29.880Z,93.85
2022-12-31T01:38:59.039Z,93.57
2022-12-31T01:41:28.967Z,93.87
2022-12-31T01:43:57.406Z,93.73
2022-12-31T01:46:42.694Z,93.50
2022-12-31T01:49:30.275Z,93.06
2022-12-31T01:52:02.909Z,93.46
2022-12-31T01:54:33.574Z,93.35
2022-12-31T01:57:00.912Z,93.63
2022-12-31T01:59:29.172Z,93.35
2022-12-31T02:01:56.407Z,92.97
2022-12-31T02:04:25.598Z,93.11
2022-12-31T02:06:57.256Z,92.87
2022-12-31T02:09:23.936Z,92.88
2022-12-31T02:11:50.648Z,93.03
2022-12-31T02:14:25.651Z,93.08
2022-12-31T02:17:16.268Z,93.18
2022-12-31T02:19:51.692Z,93.04
2022-12-31T02:22:39.621Z,93.45
2022-12-31T02:25:57.680Z,93.61
2022-12-31T02:28:45.455Z,93.50
2022-12-31T02:31:27.727Z,93.32
2022-12-31T02:34:10.446Z,93.18
2022-12-31T02:36:41.699Z,93.78
2022-12-31T02:39:09.889Z,93.37
2022-12-31T02:41:51.833Z,93.27
2022-12-31T02:44:33.580Z,93.00
2022-12-31T02:47:09.047Z,93.39
2022-12-31T02:49:53.982Z,93.15
2022-12-31T02:52:31.482Z,92.94
2022-12-31T02:55:14.400Z,93.20
2022-12-31T02:57:44.630Z,92.70
2022-12-31T03:00:33.088Z,92.83
2022-12-31T03:03:01.128Z,92.75
2022-12-31T03:05:32.042Z,92.43
2022-12-31T03:07:58.626Z,92.73
2022-12-31T03:10:25.607Z,93.05
2022-12-31T03:12:52.249Z,93.23
2022-12-31T03:15:23.670Z,93.44
2022-12-31T03:18:03.242Z,93.55
2022-12-31T03:20:58.670Z,92.76
2022-12-31T03:23:32.110Z,92.57
2022-12-31T03:26:00.269Z,92.79
2022-12-31T03:28:29.389Z,92.70
2022-12-31T03:30:58.678Z,92.21
2022-12-31T03:33:26.437Z,92.49
2022-12-31T03:35:53.739Z,92.40
2022-12-31T03:38:20.609Z,92.50
2022-12-31T03:40:50.011Z,92.74
2022-12-31T03:43:17.160Z,92.53
2022-12-31T03:45:43.897Z,92.56
2022-12-31T03:48:10.759Z,92.48
2022-12-31T03:50:37.357Z,91.96
2022-12-31T03:53:05.732Z,91.91
2022-12-31T03:55:32.387Z,92.56
2022-12-31T03:57:58.987Z,92.75
2022-12-31T04:00:25.723Z,93.20
2022-12-31T04:02:52.432Z,93.91
2022-12-31T04:05:20.056Z,94.15
2022-12-31T04:07:47.177Z,94.63
2022-12-31T04:10:16.807Z,94.94
2022-12-31T04:12:43.809Z,94.84
2022-12-31T04:15:15.170Z,94.98
2022-12-31T04:17:41.782Z,95.52
2022-12-31T04:20:09.066Z,94.97
2022-12-31T04:22:35.788Z,95.17
2022-12-31T04:25:02.452Z,95.41
2022-12-31T04:27:29.063Z,95.52
2022-12-31T04:29:55.615Z,95.89
2022-12-31T04:32:22.188Z,95.61
2022-12-31T04:34:48.723Z,95.06
2022-12-31T04:37:15.485Z,95.28
2022-12-31T04:39:42.137Z,95.24
2022-12-31T04:42:08.678Z,95.28
2022-12-31T04:44:35.873Z,95.44
2022-12-31T04:47:02.556Z,95.39
2022-12-31T04:49:29.199Z,95.57
2022-12-31T04:51:55.859Z,95.66
2022-12-31T04:54:22.649Z,95.77
2022-12-31T04:56:49.260Z,95.84
2022-12-31T04:59:15.856Z,96.29
2022-12-31T05:01:42.616Z,95.93
2022-12-31T05:04:09.336Z,95.62
2022-12-31T05:06:35.937Z,95.15
2022-12-31T05:09:02.641Z,95.08
2022-12-31T05:11:29.375Z,95.32
2022-12-31T05:13:55.959Z,95.10
2022-12-31T05:16:22.757Z,95.07
2022-12-31T05:18:49.428Z,94.76
2022-12-31T05:21:20.830Z,94.96
2022-12-31T05:23:48.274Z,95.51
2022-12-31T05:26:15.055Z,96.14
2022-12-31T05:28:41.652Z,96.24
2022-12-31T05:31:08.922Z,96.37
2022-12-31T05:33:35.668Z,96.36
2022-12-31T05:36:02.514Z,96.50
2022-12-31T05:38:29.237Z,96.89
2022-12-31T05:41:07.563Z,96.73
2022-12-31T05:43:34.896Z,97.01
2022-12-31T05:46:03.280Z,97.33
2022-12-31T05:48:31.033Z,98.16
2022-12-31T05:50:58.339Z,97.94
2022-12-31T05:53:25.009Z,98.66
2022-12-31T05:55:51.656Z,99.21
2022-12-31T05:58:18.543Z,99.55
2022-12-31T06:00:45.975Z,99.69
2022-12-31T06:03:12.939Z,99.99
2022-12-31T06:05:43.952Z,99.93
2022-12-31T06:08:12.293Z,99.91
2022-12-31T06:10:40.110Z,99.85
2022-12-31T06:13:07.126Z,99.87
2022-12-31T06:15:37.500Z,99.77
2022-12-31T06:18:04.413Z,99.79
2022-12-31T06:20:31.143Z,99.72
2022-12-31T06:22:57.714Z,99.75
2022-12-31T06:25:24.275Z,99.16
2022-12-31T06:27:50.792Z,99.80
2022-12-31T06:30:17.373Z,99.99
2022-12-31T06:32:43.985Z,99.99
2022-12-31T06:35:10.652Z,99.90
2022-12-31T06:37:37.812Z,99.99
2022-12-31T06:40:05.086Z,99.99
2022-12-31T06:42:31.875Z,99.99
2022-12-31T06:44:59.159Z,99.99
2022-12-31T06:47:26.032Z,99.99
2022-12-31T06:49:53.184Z,99.99
2022-12-31T06:52:20.447Z,99.99
2022-12-31T06:54:47.930Z,99.99
2022-12-31T06:57:15.216Z,99.99
2022-12-31T06:59:42.213Z,99.99
2022-12-31T07:02:17.201Z,99.99
2022-12-31T07:04:52.774Z,99.59
2022-12-31T07:07:46.231Z,99.49
2022-12-31T07:10:43.454Z,99.39
2022-12-31T07:13:47.163Z,99.22
2022-12-31T07:16:19.651Z,98.96
2022-12-31T07:18:54.245Z,98.72
2022-12-31T07:21:33.302Z,98.72
2022-12-31T07:24:00.318Z,98.21
2022-12-31T07:26:57.313Z,98.03
2022-12-31T07:29:37.986Z,97.91
2022-12-31T07:32:25.021Z,97.34
2022-12-31T07:35:01.910Z,97.06
2022-12-31T07:37:34.220Z,97.27
2022-12-31T07:40:13.048Z,97.13
2022-12-31T07:43:01.095Z,96.89
2022-12-31T07:45:59.355Z,96.43
2022-12-31T07:48:28.463Z,96.28
2022-12-31T07:50:57.328Z,96.02
2022-12-31T07:53:25.489Z,95.73
2022-12-31T07:56:00.566Z,95.79
2022-12-31T07:58:39.051Z,96.18
2022-12-31T08:01:11.417Z,95.85
2022-12-31T08:03:53.079Z,95.87
2022-12-31T08:06:47.843Z,95.22
2022-12-31T08:09:37.482Z,95.45
2022-12-31T08:12:04.314Z,95.53
2022-12-31T08:14:33.574Z,95.27
2022-12-31T08:17:00.343Z,94.97
2022-12-31T08:19:33.115Z,94.67
2022-12-31T08:22:15.093Z,94.68
2022-12-31T08:25:26.001Z,94.40
2022-12-31T08:28:02.880Z,94.36
2022-12-31T08:30:46.729Z,93.80
2022-12-31T08:33:28.514Z,93.17
2022-12-31T08:36:20.878Z,93.05
2022-12-31T08:38:57.855Z,93.37
2022-12-31T08:41:43.169Z,92.97
2022-12-31T08:44:09.837Z,93.15
2022-12-31T08:47:02.503Z,92.73
2022-12-31T08:49:32.942Z,93.71
2022-12-31T08:52:01.037Z,93.16
2022-12-31T08:54:28.262Z,93.84
2022-12-31T08:57:16.683Z,93.81
2022-12-31T09:00:01.338Z,93.23
2022-12-31T09:02:52.347Z,93.28
2022-12-31T09:05:30.788Z,92.49
2022-12-31T09:08:03.364Z,92.26
2022-12-31T09:10:31.715Z,92.38
2022-12-31T09:13:17.027Z,91.87
2022-12-31T09:16:08.987Z,91.55
2022-12-31T09:18:40.230Z,91.74
2022-12-31T09:21:10.401Z,90.59
2022-12-31T09:23:37.617Z,90.59
2022-12-31T09:26:19.442Z,91.00
2022-12-31T09:29:10.742Z,91.83
2022-12-31T09:31:59.154Z,91.74
2022-12-31T09:34:43.110Z,91.84
2022-12-31T09:37:36.372Z,93.02
2022-12-31T09:40:29.121Z,93.63
2022-12-31T09:43:31.728Z,94.40
2022-12-31T09:46:13.188Z,94.88
2022-12-31T09:48:55.222Z,95.08
2022-12-31T09:51:31.170Z,95.65
2022-12-31T09:54:22.524Z,96.67
2022-12-31T09:57:17.906Z,97.36
2022-12-31T10:00:01.624Z,97.56
2022-12-31T10:03:01.176Z,97.70
2022-12-31T10:05:43.124Z,97.87
2022-12-31T10:08:34.194Z,97.75
2022-12-31T10:11:17.019Z,97.77
2022-12-31T10:13:58.175Z,98.40
2022-12-31T10:16:46.766Z,98.39
2022-12-31T10:19:27.493Z,98.11
2022-12-31T10:22:12.619Z,98.76
2022-12-31T10:24:51.683Z,99.27
2022-12-31T10:27:59.946Z,99.00
2022-12-31T10:30:32.496Z,98.72
2022-12-31T10:33:07.044Z,98.69
2022-12-31T10:35:36.369Z,98.63
2022-12-31T10:38:05.634Z,98.89
2022-12-31T10:40:50.437Z,98.57
2022-12-31T10:43:53.932Z,98.90
2022-12-31T10:46:45.454Z,99.01
2022-12-31T10:49:47.482Z,98.57
2022-12-31T10:52:52.614Z,98.65
2022-12-31T10:55:35.196Z,98.30
2022-12-31T10:58:20.242Z,98.28
2022-12-31T11:01:07.518Z,98.39
2022-12-31T11:04:01.014Z,98.12
2022-12-31T11:06:45.069Z,98.47
2022-12-31T11:09:39.613Z,98.67
2022-12-31T11:12:44.750Z,98.48
2022-12-31T11:15:20.385Z,98.34
2022-12-31T11:18:08.590Z,99.02
2022-12-31T11:20:55.752Z,99.00
2022-12-31T11:23:59.318Z,99.01
2022-12-31T11:26:28.707Z,99.49
2022-12-31T11:29:17.122Z,99.17
2022-12-31T11:31:57.987Z,98.99
2022-12-31T11:35:03.282Z,98.69
2022-12-31T11:37:50.906Z,98.18
2022-12-31T11:40:17.400Z,98.47
2022-12-31T11:42:46.591Z,97.96
2022-12-31T11:45:33.474Z,97.82
2022-12-31T11:48:31.580Z,98.19
2022-12-31T11:51:10.957Z,97.77
2022-12-31T11:54:08.712Z,98.12
2022-12-31T11:56:41.377Z,98.22
2022-12-31T11:59:18.585Z,97.67
2022-12-31T12:01:49.083Z,97.56
2022-12-31T12:07:56.953Z,97.61
2022-12-31T12:10:36.053Z,97.43
2022-12-31T12:13:29.582Z,97.17
2022-12-31T12:16:02.035Z,97.57
2022-12-31T12:18:50.298Z,97.36
2022-12-31T12:21:22.771Z,96.95
2022-12-31T12:27:37.212Z,97.30
2022-12-31T12:30:29.795Z,96.90
2022-12-31T12:33:04.646Z,96.46
2022-12-31T12:35:34.019Z,95.35
2022-12-31T12:38:04.750Z,95.40
2022-12-31T12:40:34.299Z,94.06
2022-12-31T12:43:02.434Z,93.42
2022-12-31T12:45:51.813Z,93.06
2022-12-31T12:48:28.474Z,92.66
2022-12-31T12:50:55.348Z,91.08
2022-12-31T12:54:20.671Z,90.57
2022-12-31T12:56:59.197Z,88.42
2022-12-31T12:59:43.765Z,88.33
2022-12-31T13:02:24.058Z,86.96
2022-12-31T13:04:58.343Z,86.54
2022-12-31T13:08:09.797Z,86.36
2022-12-31T13:10:58.260Z,86.05
2022-12-31T13:13:43.172Z,84.62
2022-12-31T13:16:26.762Z,83.83
2022-12-31T13:19:44.236Z,82.81
2022-12-31T13:22:46.210Z,83.95
2022-12-31T13:25:32.444Z,83.15
2022-12-31T13:28:05.058Z,81.82
2022-12-31T13:30:46.836Z,82.53
2022-12-31T13:33:24.778Z,81.97
2022-12-31T13:35:56.305Z,82.10
2022-12-31T13:38:28.613Z,81.16
2022-12-31T13:40:58.283Z,80.55
2022-12-31T13:44:09.220Z,80.66
2022-12-31T13:46:51.000Z,80.79
2022-12-31T13:49:33.581Z,80.26
2022-12-31T13:52:21.684Z,80.90
2022-12-31T13:54:55.220Z,80.28
2022-12-31T13:57:25.330Z,78.81
2022-12-31T13:59:58.853Z,78.67
2022-12-31T14:02:25.668Z,79.20
2022-12-31T14:05:02.819Z,80.76
2022-12-31T14:07:43.654Z,82.37
2022-12-31T14:10:19.511Z,83.98
2022-12-31T14:13:02.017Z,85.24
2022-12-31T14:15:39.835Z,87.14
2022-12-31T14:18:34.417Z,88.50
2022-12-31T14:21:34.558Z,89.07
2022-12-31T14:24:14.375Z,90.30
2022-12-31T14:26:48.012Z,90.94
2022-12-31T14:29:33.084Z,91.10
2022-12-31T14:32:14.485Z,91.30
2022-12-31T14:35:04.851Z,91.12
2022-12-31T14:37:46.349Z,91.13
2022-12-31T14:40:16.778Z,91.26
2022-12-31T14:43:00.647Z,91.34
2022-12-31T14:46:01.067Z,90.95
2022-12-31T14:48:48.271Z,91.25
2022-12-31T14:51:15.190Z,91.17
2022-12-31T14:53:52.648Z,90.98
2022-12-31T14:56:51.293Z,90.88
2022-12-31T14:59:32.214Z,90.62
2022-12-31T15:02:01.076Z,90.69
2022-12-31T15:04:43.658Z,89.21
2022-12-31T15:07:28.806Z,89.69
2022-12-31T15:10:25.570Z,89.28
2022-12-31T15:13:01.323Z,89.10
2022-12-31T15:15:52.260Z,88.80
2022-12-31T15:19:05.394Z,88.93
2022-12-31T15:21:34.696Z,88.55
2022-12-31T15:24:01.927Z,88.16
2022-12-31T15:26:32.451Z,88.33
2022-12-31T15:29:08.162Z,88.15
2022-12-31T15:31:36.404Z,86.56
2022-12-31T15:34:21.501Z,86.06
2022-12-31T15:36:54.362Z,86.16
2022-12-31T15:39:41.916Z,84.70
2022-12-31T15:42:42.390Z,84.50
2022-12-31T15:45:36.838Z,85.08
2022-12-31T15:48:10.027Z,84.80
2022-12-31T15:50:39.700Z,84.04
2022-12-31T15:53:07.165Z,83.82
2022-12-31T15:55:33.723Z,83.67
2022-12-31T15:58:05.719Z,82.80
2022-12-31T16:01:14.356Z,83.12
2022-12-31T16:03:57.972Z,83.28
2022-12-31T16:06:27.538Z,81.44
2022-12-31T16:08:55.502Z,81.71
2022-12-31T16:11:24.502Z,81.97
2022-12-31T16:13:54.619Z,81.29
2022-12-31T16:16:32.257Z,81.69
2022-12-31T16:18:59.477Z,81.44
2022-12-31T16:21:34.831Z,81.82
2022-12-31T16:24:07.216Z,80.71
2022-12-31T16:26:46.340Z,81.15
2022-12-31T16:29:18.353Z,81.07
2022-12-31T16:31:47.044Z,78.85
2022-12-31T16:34:17.250Z,78.74
2022-12-31T16:36:55.842Z,78.57
2022-12-31T16:39:24.389Z,79.61
2022-12-31T16:41:52.381Z,79.41
2022-12-31T16:44:28.436Z,79.44
2022-12-31T16:46:58.064Z,79.63
2022-12-31T16:49:26.177Z,80.00
2022-12-31T16:51:56.879Z,78.79
2022-12-31T16:54:30.463Z,79.21
2022-12-31T16:56:59.038Z,78.72
2022-12-31T16:59:41.046Z,77.91
2022-12-31T17:02:20.194Z,77.44
2022-12-31T17:04:56.018Z,77.87
2022-12-31T17:07:31.998Z,78.04
2022-12-31T17:10:23.365Z,78.66
2022-12-31T17:13:27.806Z,78.25
2022-12-31T17:15:51.090Z,78.88
2022-12-31T17:18:20.827Z,78.20
2022-12-31T17:20:50.239Z,78.28
2022-12-31T17:23:28.227Z,77.65
2022-12-31T17:26:08.067Z,76.99
2022-12-31T17:28:42.034Z,76.83
2022-12-31T17:31:29.140Z,76.77
2022-12-31T17:34:25.013Z,76.71
2022-12-31T17:37:03.980Z,76.88
2022-12-31T17:40:48.766Z,77.26
2022-12-31T17:42:50.918Z,77.00
2022-12-31T17:45:22.037Z,76.63
2022-12-31T17:47:55.586Z,76.71
2022-12-31T17:50:25.278Z,76.58
2022-12-31T17:52:57.241Z,76.34
2022-12-31T17:55:23.949Z,76.80
2022-12-31T17:57:56.519Z,76.29
2022-12-31T18:00:26.662Z,76.46
2022-12-31T18:02:53.634Z,76.27
2022-12-31T18:05:23.186Z,76.10
2022-12-31T18:07:50.160Z,75.81
2022-12-31T18:10:19.263Z,76.00
2022-12-31T18:12:47.268Z,76.01
2022-12-31T18:15:22.554Z,75.71
2022-12-31T18:17:49.329Z,76.20
2022-12-31T18:20:16.194Z,76.26
2022-12-31T18:22:44.807Z,76.26
2022-12-31T18:25:21.140Z,76.62
2022-12-31T18:27:49.493Z,75.65
2022-12-31T18:30:16.609Z,75.84
2022-12-31T18:32:44.734Z,76.12
2022-12-31T18:35:48.535Z,76.17
2022-12-31T18:38:03.595Z,76.15
2022-12-31T18:40:30.349Z,76.51
2022-12-31T18:43:02.680Z,76.88
2022-12-31T18:45:31.615Z,76.89
2022-12-31T18:47:58.198Z,76.58
2022-12-31T18:50:24.921Z,77.25
2022-12-31T18:52:51.587Z,77.00
2022-12-31T18:55:32.036Z,77.38
2022-12-31T18:57:58.701Z,77.25
2022-12-31T19:00:25.445Z,77.14
2022-12-31T19:02:52.129Z,76.91
2022-12-31T19:05:29.859Z,76.66
2022-12-31T19:07:57.019Z,76.44
2022-12-31T19:10:25.001Z,76.89
2022-12-31T19:12:52.425Z,77.06
2022-12-31T19:15:29.611Z,76.19
2022-12-31T19:17:57.233Z,75.91
2022-12-31T19:20:24.709Z,76.20
2022-12-31T19:22:51.472Z,76.70
2022-12-31T19:25:24.278Z,76.87
2022-12-31T19:27:51.610Z,76.53
2022-12-31T19:30:20.908Z,76.85
2022-12-31T19:32:47.446Z,77.90
2022-12-31T19:35:15.258Z,77.43
2022-12-31T19:37:45.707Z,77.27
2022-12-31T19:40:15.654Z,76.80
2022-12-31T19:42:43.664Z,76.64
2022-12-31T19:45:21.021Z,76.62
2022-12-31T19:47:48.333Z,76.56
2022-12-31T19:50:18.038Z,75.75
2022-12-31T19:52:46.931Z,75.96
2022-12-31T19:55:16.655Z,76.38
2022-12-31T19:57:43.292Z,76.04
2022-12-31T20:00:11.816Z,75.90
2022-12-31T20:02:38.829Z,75.93
2022-12-31T20:05:05.886Z,75.67
2022-12-31T20:07:32.711Z,75.85
2022-12-31T20:09:59.236Z,76.27
2022-12-31T20:12:26.914Z,76.05
2022-12-31T20:14:53.765Z,75.57
2022-12-31T20:17:20.422Z,75.86
2022-12-31T20:19:47.031Z,76.09
2022-12-31T20:22:14.120Z,76.18
2022-12-31T20:24:40.737Z,76.07
2022-12-31T20:27:12.197Z,76.23
2022-12-31T20:29:41.564Z,75.57
2022-12-31T20:32:09.575Z,75.36
2022-12-31T20:34:36.392Z,75.94
2022-12-31T20:37:03.021Z,74.87
2022-12-31T20:39:29.646Z,74.54
2022-12-31T20:41:56.259Z,73.96
2022-12-31T20:44:22.976Z,74.15
2022-12-31T20:46:49.827Z,74.14
2022-12-31T20:49:16.522Z,74.38
2022-12-31T20:51:48.850Z,74.51
2022-12-31T20:54:18.437Z,74.33
2022-12-31T20:56:45.005Z,73.60
2022-12-31T20:59:11.668Z,73.37
2022-12-31T21:02:11.797Z,73.18
2022-12-31T21:04:25.480Z,73.05
2022-12-31T21:06:52.347Z,72.70
2022-12-31T21:09:19.042Z,73.00
2022-12-31T21:12:23.938Z,72.82
2022-12-31T21:14:50.787Z,72.39
2022-12-31T21:17:17.346Z,71.58
2022-12-31T21:19:43.866Z,72.16
2022-12-31T21:22:10.435Z,72.26
2022-12-31T21:24:37.626Z,71.51
2022-12-31T21:27:04.218Z,71.92
2022-12-31T21:29:34.581Z,71.67
2022-12-31T21:32:02.215Z,71.90
2022-12-31T21:34:28.931Z,71.50
2022-12-31T21:36:55.628Z,71.34
2022-12-31T21:39:22.297Z,70.89
2022-12-31T21:41:51.414Z,70.47
2022-12-31T21:44:24.005Z,70.29
2022-12-31T21:47:33.822Z,70.39
2022-12-31T21:49:44.067Z,70.07
2022-12-31T21:52:27.072Z,70.51
2022-12-31T21:55:13.414Z,69.83
2022-12-31T21:57:59.477Z,69.62
2022-12-31T22:00:46.054Z,70.79
2022-12-31T22:03:25.021Z,69.85
2022-12-31T22:05:55.254Z,69.54
2022-12-31T22:08:22.909Z,69.04
2022-12-31T22:10:52.702Z,69.31
2022-12-31T22:13:20.025Z,69.02
2022-12-31T22:15:48.169Z,69.49
2022-12-31T22:18:16.329Z,68.78
2022-12-31T22:20:43.266Z,68.03
2022-12-31T22:23:09.914Z,69.18
2022-12-31T22:25:38.258Z,68.60
2022-12-31T22:28:40.615Z,68.44
2022-12-31T22:30:53.182Z,68.36
2022-12-31T22:33:20.075Z,69.13
2022-12-31T22:35:57.814Z,69.07
2022-12-31T22:38:25.695Z,68.39
2022-12-31T22:41:00.273Z,68.64
2022-12-31T22:43:26.981Z,68.40
2022-12-31T22:45:53.964Z,68.78
2022-12-31T22:48:20.497Z,68.47
2022-12-31T22:50:54.855Z,68.28
2022-12-31T22:53:21.462Z,67.85
2022-12-31T22:55:48.837Z,68.38
2022-12-31T22:58:15.742Z,68.11
2022-12-31T23:00:42.323Z,68.51
2022-12-31T23:03:08.963Z,67.96
2022-12-31T23:05:35.783Z,68.33
2022-12-31T23:08:06.146Z,68.10
2022-12-31T23:10:58.203Z,67.51
2022-12-31T23:13:49.783Z,67.54
2022-12-31T23:16:35.930Z,67.09
2022-12-31T23:19:21.063Z,67.20
2022-12-31T23:22:06.252Z,66.53
2022-12-31T23:24:32.882Z,66.68
2022-12-31T23:26:59.524Z,66.35
2022-12-31T23:29:26.304Z,67.36
2022-12-31T23:31:53.232Z,66.26
2022-12-31T23:34:19.910Z,65.86
2022-12-31T23:36:46.680Z,66.18
2022-12-31T23:39:13.648Z,65.26
2022-12-31T23:41:40.799Z,66.04
2022-12-31T23:44:07.412Z,65.60
2022-12-31T23:46:34.091Z,65.52
2022-12-31T23:49:00.726Z,65.76
2022-12-31T23:51:27.276Z,64.72
2022-12-31T23:53:53.877Z,65.32
2022-12-31T23:56:23.957Z,65.08
2022-12-31T23:58:58.487Z,64.87
